Flight Track Log - Related Links

Times and Time Zones

All times are in EDT time to prevent confusion due to time zone crossing. See the AVA16 flight status page for this flight to view local times or setup timezone preferences in your user account.

Time Position Orientation Groundspeed Altitude Reporting Facility
EDT Latitude Longitude Course Direction KTS MPH feet Rate Location/Type
Thu 12:08:21 AM 6.9310 -74.1000 59° Northeast 461 531 27,800  Level FlightAware ADS-B
Thu 12:09:01 AM 6.9720 -74.0320 59° Northeast 465 535 28,300 975 Climbing FlightAware ADS-B
Thu 12:09:41 AM 7.0190 -73.9530 59° Northeast 471 542 29,100 1,125 Climbing FlightAware ADS-B
Thu 12:10:21 AM 7.0660 -73.8750 59° Northeast 476 548 29,800 1,125 Climbing FlightAware ADS-B
Thu 12:11:01 AM 7.1070 -73.8070 59° Northeast 474 545 30,600 1,267 Climbing FlightAware ADS-B
Thu 12:11:51 AM 7.1670 -73.7060 59° Northeast 471 542 31,700 1,267 Climbing FlightAware ADS-B
Thu 12:12:31 AM 7.2140 -73.6300 58° Northeast 471 542 32,500 1,120 Climbing FlightAware ADS-B
Thu 12:13:06 AM 7.2510 -73.5670 59° Northeast 471 542 33,100 1,067 Climbing FlightAware ADS-B
Thu 12:14:01 AM 7.3150 -73.4610 59° Northeast 470 541 34,100 1,140 Climbing FlightAware ADS-B
Thu 12:14:46 AM 7.3640 -73.3790 59° Northeast 466 536 35,000 1,200 Climbing FlightAware ADS-B
Thu 12:14:56 AM 7.3770 -73.3580 58° Northeast 466 536 35,200 109 Climbing FlightAware ADS-B
Thu 12:17:31 AM 7.5230 -73.1130 59° Northeast 466 536 35,300 545 Climbing FlightAware ADS-B
Thu 12:18:14 AM 7.5820 -73.0160 58° Northeast 465 535 37,000 1,229 Climbing FlightAware ADS-B
Thu 12:18:54 AM 7.6190 -72.9530 59° Northeast 465 535 37,000  Level FlightAware ADS-B
Thu 12:19:30 AM 7.6530 -72.8960 59° Northeast 465 535 37,000  Level FlightAware ADS-B
Thu 12:20:18 AM 7.6980 -72.8200 59° Northeast 465 535 37,000  Level FlightAware ADS-B
Thu 12:20:55 AM 7.7330 -72.7610 59° Northeast 465 535 37,000  Level FlightAware ADS-B
Thu 12:21:31 AM 7.7670 -72.7050 58° Northeast 465 535 37,000  Level FlightAware ADS-B
Thu 12:22:19 AM 7.8120 -72.6290 59° Northeast 465 535 37,000  Level FlightAware ADS-B
Thu 12:22:55 AM 7.8460 -72.5720 59° Northeast 465 535 37,000  Level FlightAware ADS-B
Thu 12:23:56 AM 7.9040 -72.4750 59° Northeast 465 535 37,000  Level FlightAware ADS-B
Thu 12:24:32 AM 7.9380 -72.4180 59° Northeast 465 535 37,000  Level FlightAware ADS-B
Thu 12:25:20 AM 7.9830 -72.3420 59° Northeast 465 535 37,000  Level FlightAware ADS-B
Thu 12:25:56 AM 8.0170 -72.2850 59° Northeast 465 535 37,000  Level FlightAware ADS-B
Thu 12:26:45 AM 8.0630 -72.2080 59° Northeast 465 535 37,000  Level FlightAware ADS-B
Thu 12:27:21 AM 8.0970 -72.1510 59° Northeast 465 535 37,000 45 Level FlightAware ADS-B
Thu 12:30:00 AM 8.3411 -71.8616 50° Northeast  Level Estimated
Thu 12:31:00 AM 8.4331 -71.7523 50° Northeast  Level Estimated
Thu 12:32:00 AM 8.5252 -71.6430 50° Northeast  Level Estimated
Thu 12:33:00 AM 8.6171 -71.5336 50° Northeast  Level Estimated
Thu 12:34:00 AM 8.7091 -71.4241 50° Northeast  Level Estimated
Thu 12:35:00 AM 8.8010 -71.3146 50° Northeast  Level Estimated
Thu 12:36:00 AM 8.8929 -71.2051 50° Northeast  Level Estimated
Thu 12:37:00 AM 8.9848 -71.0955 50° Northeast  Level Estimated
Thu 12:38:00 AM 9.0766 -70.9858 50° Northeast  Level Estimated
Thu 12:39:00 AM 9.1684 -70.8761 50° Northeast  Level Estimated
Thu 12:40:00 AM 9.2602 -70.7663 50° Northeast  Level Estimated
Thu 12:41:00 AM 9.3519 -70.6564 50° Northeast  Level Estimated
Thu 12:42:00 AM 9.4436 -70.5465 50° Northeast  Level Estimated
Thu 12:43:00 AM 9.5353 -70.4366 50° Northeast  Level Estimated
Thu 12:44:00 AM 9.6269 -70.3266 50° Northeast  Level Estimated
Thu 12:45:00 AM 9.7185 -70.2165 50° Northeast  Level Estimated
Thu 12:46:00 AM 9.8101 -70.1064 50° Northeast  Level Estimated
Thu 12:47:00 AM 9.9016 -69.9962 50° Northeast  Level Estimated
Thu 12:48:00 AM 9.9931 -69.8859 50° Northeast  Level Estimated
Thu 12:49:00 AM 10.0845 -69.7756 50° Northeast  Level Estimated
Thu 12:50:00 AM 10.1759 -69.6652 50° Northeast  Level Estimated
Thu 12:51:00 AM 10.2673 -69.5547 50° Northeast  Level Estimated
Thu 12:52:00 AM 10.3587 -69.4442 50° Northeast  Level Estimated
Thu 12:53:00 AM 10.4500 -69.3337 50° Northeast  Level Estimated
Thu 12:54:00 AM 10.5412 -69.2230 50° Northeast  Level Estimated
Thu 12:55:00 AM 10.6324 -69.1123 50° Northeast  Level Estimated
Thu 12:56:00 AM 10.7236 -69.0016 50° Northeast  Level Estimated
Thu 12:57:00 AM 10.8148 -68.8907 50° Northeast  Level Estimated
Thu 12:58:00 AM 10.9059 -68.7798 50° Northeast  Level Estimated
Thu 12:59:00 AM 10.9970 -68.6689 50° Northeast  Level Estimated
Thu 01:00:00 AM 11.0880 -68.5578 50° Northeast  Level Estimated
Thu 01:01:00 AM 11.1790 -68.4467 50° Northeast  Level Estimated
Thu 01:02:00 AM 11.2699 -68.3355 50° Northeast  Level Estimated
Thu 01:03:00 AM 11.3608 -68.2243 50° Northeast  Level Estimated
Thu 01:04:00 AM 11.4517 -68.1130 50° Northeast  Level Estimated
Thu 01:05:00 AM 11.5425 -68.0016 50° Northeast  Level Estimated
Thu 01:06:00 AM 11.6333 -67.8901 50° Northeast  Level Estimated
Thu 01:07:00 AM 11.7240 -67.7786 50° Northeast  Level Estimated
Thu 01:08:00 AM 11.8147 -67.6669 50° Northeast  Level Estimated
Thu 01:09:00 AM 11.9054 -67.5553 50° Northeast  Level Estimated
Thu 01:10:00 AM 11.9960 -67.4435 50° Northeast  Level Estimated
Thu 01:11:00 AM 12.0865 -67.3317 50° Northeast  Level Estimated
Thu 01:11:31 AM 9.9550 -66.6320 50° Northeast 456 525 39,000  Level FlightAware ADS-B
Thu 01:12:00 AM 12.1771 -67.2198 50° Northeast  Level Estimated
Thu 01:12:08 AM 9.9970 -66.5290 68° East 459 528 39,000  Level FlightAware ADS-B
Thu 01:13:02 AM 10.0380 -66.4280 68° East 460 529 39,000  Level FlightAware ADS-B
Thu 01:13:38 AM 10.0640 -66.3670 67° East 460 529 39,000  Level FlightAware ADS-B
Thu 01:14:26 AM 10.0980 -66.2860 67° East 460 529 39,000  Level FlightAware ADS-B
Thu 01:15:15 AM 10.1320 -66.2030 67° East 460 529 39,000  Level FlightAware ADS-B
Thu 01:15:52 AM 10.1590 -66.1410 66° East 460 529 39,000  Level FlightAware ADS-B
Thu 01:16:41 AM 10.1930 -66.0580 67° East 460 529 39,000  Level FlightAware ADS-B
Thu 01:17:17 AM 10.2190 -65.9970 67° East 460 529 39,000  Level FlightAware ADS-B
Thu 01:18:05 AM 10.2530 -65.9160 67° East 460 529 39,000  Level FlightAware ADS-B
Thu 01:18:42 AM 10.2790 -65.8530 67° East 460 529 39,000  Level FlightAware ADS-B
Thu 01:19:19 AM 10.3050 -65.7900 67° East 460 529 39,000  Level FlightAware ADS-B
Thu 01:19:55 AM 10.3300 -65.7300 67° East 460 529 39,000  Level FlightAware ADS-B
Thu 01:20:43 AM 10.3640 -65.6480 67° East 460 529 39,000  Level FlightAware ADS-B
Thu 01:21:19 AM 10.3900 -65.5870 67° East 460 529 39,000  Level FlightAware ADS-B
Thu 01:22:08 AM 10.4240 -65.5040 67° East 460 529 39,000  Level FlightAware ADS-B
Thu 01:24:00 AM 10.5962 -65.2991 49° Northeast  Level Estimated
Thu 01:25:00 AM 10.6884 -65.1892 49° Northeast  Level Estimated
Thu 01:26:00 AM 10.7806 -65.0792 50° Northeast  Level Estimated
Thu 01:27:00 AM 10.8727 -64.9692 50° Northeast  Level Estimated
Thu 01:28:00 AM 10.9648 -64.8591 50° Northeast  Level Estimated
Thu 01:29:00 AM 11.0568 -64.7490 50° Northeast  Level Estimated
Thu 01:30:00 AM 11.1489 -64.6387 50° Northeast  Level Estimated
Thu 01:31:00 AM 11.2408 -64.5285 50° Northeast  Level Estimated
Thu 01:32:00 AM 11.3328 -64.4181 50° Northeast  Level Estimated
Thu 01:33:00 AM 11.4246 -64.3077 50° Northeast  Level Estimated
Thu 01:34:00 AM 11.5165 -64.1972 50° Northeast  Level Estimated
Thu 01:35:00 AM 11.6083 -64.0866 50° Northeast  Level Estimated
Thu 01:36:00 AM 11.7000 -63.9759 50° Northeast  Level Estimated
Thu 01:37:00 AM 11.7918 -63.8652 50° Northeast  Level Estimated
Thu 01:38:00 AM 11.8834 -63.7544 50° Northeast  Level Estimated
Thu 01:39:00 AM 11.9751 -63.6435 50° Northeast  Level Estimated
Thu 01:40:00 AM 12.0667 -63.5326 50° Northeast  Level Estimated
Thu 01:41:00 AM 12.1582 -63.4216 50° Northeast  Level Estimated
Thu 01:42:00 AM 12.2497 -63.3105 50° Northeast  Level Estimated
Thu 01:43:00 AM 12.3412 -63.1993 50° Northeast  Level Estimated
Thu 01:44:00 AM 12.4326 -63.0880 50° Northeast  Level Estimated
Thu 01:45:00 AM 12.5239 -62.9767 50° Northeast  Level Estimated
Thu 01:46:00 AM 12.6152 -62.8653 50° Northeast  Level Estimated
Thu 01:47:00 AM 12.6985 -62.7636 50° Northeast  Level Estimated
Thu 01:48:00 AM 12.7817 -62.6619 50° Northeast  Level Estimated
Thu 01:49:00 AM 12.8648 -62.5601 50° Northeast  Level Estimated
Thu 01:50:00 AM 12.9479 -62.4582 50° Northeast  Level Estimated
Thu 01:51:00 AM 13.0310 -62.3563 50° Northeast  Level Estimated
Thu 01:52:00 AM 13.1140 -62.2543 50° Northeast  Level Estimated
Thu 01:53:00 AM 13.1970 -62.1522 50° Northeast  Level Estimated
Thu 01:53:41 AM 12.2110 -61.6420 50° Northeast 456 525 39,000  Level FlightAware ADS-B
Thu 01:54:00 AM 13.2800 -62.0501 50° Northeast  Level Estimated
Thu 01:54:33 AM 12.2400 -61.5870 62° Northeast 456 525 39,000  Level FlightAware ADS-B
Thu 01:55:26 AM 12.2920 -61.4910 61° Northeast 456 525 39,000  Level FlightAware ADS-B
Thu 01:56:27 AM 12.3450 -61.3930 61° Northeast 456 525 39,000  Level FlightAware ADS-B
Thu 01:57:25 AM 12.4410 -61.2120 61° Northeast 460 529 39,000  Level FlightAware ADS-B
Thu 01:58:03 AM 12.4480 -61.1980 63° Northeast 460 529 39,000  Level FlightAware ADS-B
Thu 01:59:23 AM 12.5560 -60.9920 62° Northeast 461 531 39,000  Level FlightAware ADS-B
Thu 02:00:58 AM 12.6490 -60.8170 50° Northeast 460 529 39,000  Level FlightAware ADS-B
Thu 02:01:00 AM 12.6915 -60.8285 50° Northeast  Level Estimated
Thu 02:01:39 AM 12.6560 -60.8060 57° Northeast 461 531 39,000  Level FlightAware ADS-B
Thu 02:02:26 AM 12.7200 -60.6850 62° Northeast 462 532 39,000  Level FlightAware ADS-B
Thu 02:03:11 AM 12.7560 -60.6180 61° Northeast 462 532 39,000  Level FlightAware ADS-B
Thu 02:03:47 AM 12.7950 -60.5440 62° Northeast 462 532 39,000  Level FlightAware ADS-B
Thu 02:04:35 AM 12.8500 -60.4390 62° Northeast 462 532 39,000  Level FlightAware ADS-B
Thu 02:05:18 AM 12.8920 -60.3600 61° Northeast 463 533 39,000  Level FlightAware ADS-B
Thu 02:05:58 AM 12.9330 -60.2820 62° Northeast 464 534 39,000  Level FlightAware ADS-B
Thu 02:06:33 AM 12.9670 -60.2170 62° Northeast 465 535 39,000  Level FlightAware ADS-B
Thu 02:07:29 AM 13.0260 -60.1050 62° Northeast 466 536 39,000  Level FlightAware ADS-B
Thu 02:08:27 AM 13.0890 -59.9860 61° Northeast 468 539 39,000  Level FlightAware ADS-B
Thu 02:09:04 AM 13.1220 -59.9220 62° Northeast 468 539 39,000  Level FlightAware ADS-B
Thu 02:09:43 AM 13.1940 -59.7840 62° Northeast 469 540 39,000  Level FlightAware ADS-B
Thu 02:10:29 AM 13.2420 -59.6930 62° Northeast 468 539 39,000  Level FlightAware ADS-B
Thu 02:11:49 AM 13.3270 -59.5310 62° Northeast 469 540 39,000  Level FlightAware ADS-B
Thu 02:12:26 AM 13.3620 -59.4640 62° Northeast 469 540 39,000  Level FlightAware ADS-B
Thu 02:13:13 AM 13.4120 -59.3680 62° Northeast 467 537 39,000  Level FlightAware ADS-B
Thu 02:13:55 AM 13.4500 -59.2940 62° Northeast 467 537 39,000  Level FlightAware ADS-B
Thu 02:14:35 AM 13.4910 -59.2160 62° Northeast 467 537 39,000  Level FlightAware ADS-B
Thu 02:16:00 AM 13.5710 -59.0620 50° Northeast 465 535 39,000  Level FlightAware ADS-B
Thu 02:17:00 AM 13.6930 -58.9701 50° Northeast  Level Estimated
Thu 02:18:22 AM 13.7030 -58.8080 62° Northeast 467 537 39,000  Level FlightAware ADS-B
Thu 02:18:59 AM 13.7610 -58.6950 62° Northeast 469 540 39,000  Level FlightAware ADS-B
Thu 02:20:11 AM 13.8180 -58.5850 62° Northeast 469 540 39,000  Level FlightAware ADS-B
Thu 02:20:47 AM 13.8510 -58.5220 62° Northeast 469 540 39,000  Level FlightAware ADS-B
Thu 02:21:33 AM 13.9150 -58.3960 62° Northeast 469 540 39,000  Level FlightAware ADS-B
Thu 02:22:11 AM 13.9540 -58.3210 62° Northeast 469 540 39,000  Level FlightAware ADS-B
Thu 02:23:01 AM 14.0040 -58.2230 62° Northeast 469 540 39,000  Level FlightAware ADS-B
Thu 02:23:34 AM 14.0350 -58.1630 62° Northeast 469 540 39,000  Level FlightAware ADS-B
Thu 02:24:24 AM 14.0740 -58.0870 62° Northeast 470 541 39,000  Level FlightAware ADS-B
Thu 02:25:00 AM 14.1130 -58.0110 62° Northeast 471 542 39,000  Level FlightAware ADS-B
Thu 02:25:49 AM 14.1620 -57.9160 62° Northeast 471 542 39,000  Level FlightAware ADS-B
Thu 02:26:45 AM 14.2190 -57.8040 62° Northeast 471 542 39,000  Level FlightAware ADS-B
Thu 02:27:23 AM 14.2470 -57.7500 62° Northeast 472 543 39,000  Level FlightAware ADS-B
Thu 02:28:08 AM 14.3060 -57.6340 62° Northeast 475 547 39,000  Level FlightAware ADS-B
Thu 02:28:49 AM 14.3460 -57.5550 62° Northeast 476 548 39,000  Level FlightAware ADS-B
Thu 02:29:28 AM 14.3870 -57.4750 62° Northeast 477 549 39,000  Level FlightAware ADS-B
Thu 02:31:41 AM 14.5030 -57.2490 62° Northeast 478 550 39,000  Level FlightAware ADS-B
Thu 02:32:17 AM 14.5350 -57.1870 62° Northeast 478 550 39,000  Level FlightAware ADS-B
Thu 02:33:06 AM 14.5780 -57.1030 62° Northeast 478 550 39,000  Level FlightAware ADS-B
Thu 02:33:42 AM 14.6100 -57.0410 62° Northeast 478 550 39,000  Level FlightAware ADS-B
Thu 02:34:30 AM 14.6520 -56.9590 62° Northeast 478 550 39,000  Level FlightAware ADS-B
Thu 02:35:06 AM 14.6840 -56.8970 62° Northeast 478 550 39,000  Level FlightAware ADS-B
Thu 02:35:54 AM 14.7270 -56.8150 62° Northeast 478 550 39,000  Level FlightAware ADS-B
Thu 02:36:30 AM 14.7580 -56.7530 63° Northeast 478 550 39,000  Level FlightAware ADS-B
Thu 02:37:18 AM 14.8010 -56.6710 62° Northeast 478 550 39,000  Level FlightAware ADS-B
Thu 02:37:54 AM 14.8320 -56.6090 63° Northeast 478 550 39,000  Level FlightAware ADS-B
Thu 02:38:42 AM 14.8750 -56.5260 62° Northeast 478 550 39,000  Level FlightAware ADS-B
Thu 02:39:18 AM 14.9070 -56.4650 61° Northeast 478 550 39,000  Level FlightAware ADS-B
Thu 02:41:00 AM 15.0485 -56.2905 50° Northeast  Level Estimated
Thu 02:42:00 AM 15.1317 -56.1877 50° Northeast  Level Estimated
Thu 02:43:00 AM 15.2148 -56.0848 50° Northeast  Level Estimated
Thu 02:44:00 AM 15.2979 -55.9819 50° Northeast  Level Estimated
Thu 02:45:00 AM 15.3810 -55.8789 50° Northeast  Level Estimated
Thu 02:46:00 AM 15.4640 -55.7758 50° Northeast  Level Estimated
Thu 02:47:00 AM 15.5469 -55.6726 50° Northeast  Level Estimated
Thu 02:48:00 AM 15.6298 -55.5693 50° Northeast  Level Estimated
Thu 02:49:00 AM 15.7127 -55.4660 50° Northeast  Level Estimated
Thu 02:50:00 AM 15.7955 -55.3625 50° Northeast  Level Estimated
Thu 02:51:00 AM 15.8782 -55.2590 50° Northeast  Level Estimated
Thu 02:52:00 AM 15.9609 -55.1554 50° Northeast  Level Estimated
Thu 02:53:00 AM 16.0436 -55.0517 50° Northeast  Level Estimated
Thu 02:54:00 AM 16.1262 -54.9479 50° Northeast  Level Estimated
Thu 02:55:00 AM 16.2087 -54.8441 50° Northeast  Level Estimated
Thu 02:56:00 AM 16.2913 -54.7401 50° Northeast  Level Estimated
Thu 02:57:00 AM 16.3737 -54.6361 50° Northeast  Level Estimated
Thu 02:58:00 AM 16.4561 -54.5320 50° Northeast  Level Estimated
Thu 02:59:00 AM 16.5385 -54.4277 50° Northeast  Level Estimated
Thu 03:00:00 AM 16.6208 -54.3234 51° Northeast  Level Estimated
Thu 03:01:00 AM 16.7030 -54.2191 51° Northeast  Level Estimated
Thu 03:02:00 AM 16.7852 -54.1146 51° Northeast  Level Estimated
Thu 03:03:00 AM 16.8673 -54.0100 51° Northeast  Level Estimated
Thu 03:04:00 AM 16.9494 -53.9053 51° Northeast  Level Estimated
Thu 03:05:00 AM 17.0315 -53.8006 51° Northeast  Level Estimated
Thu 03:06:00 AM 17.1134 -53.6957 51° Northeast  Level Estimated
Thu 03:07:00 AM 17.1954 -53.5908 51° Northeast  Level Estimated
Thu 03:08:00 AM 17.2773 -53.4858 51° Northeast  Level Estimated
Thu 03:09:00 AM 17.3591 -53.3806 51° Northeast  Level Estimated
Thu 03:10:00 AM 17.4408 -53.2754 51° Northeast  Level Estimated
Thu 03:11:00 AM 17.5225 -53.1701 51° Northeast  Level Estimated
Thu 03:12:00 AM 17.6042 -53.0647 51° Northeast  Level Estimated
Thu 03:13:00 AM 17.6858 -52.9592 51° Northeast  Level Estimated
Thu 03:14:00 AM 17.7673 -52.8536 51° Northeast  Level Estimated
Thu 03:15:00 AM 17.8488 -52.7479 51° Northeast  Level Estimated
Thu 03:16:00 AM 17.9302 -52.6421 51° Northeast  Level Estimated
Thu 03:17:00 AM 18.0116 -52.5362 51° Northeast  Level Estimated
Thu 03:18:00 AM 18.0929 -52.4302 51° Northeast  Level Estimated
Thu 03:19:00 AM 18.1742 -52.3241 51° Northeast  Level Estimated
Thu 03:20:00 AM 18.2554 -52.2179 51° Northeast  Level Estimated
Thu 03:21:00 AM 18.3365 -52.1117 51° Northeast  Level Estimated
Thu 03:22:00 AM 18.4176 -52.0053 51° Northeast  Level Estimated
Thu 03:23:00 AM 18.4986 -51.8988 51° Northeast  Level Estimated
Thu 03:24:00 AM 18.5796 -51.7922 51° Northeast  Level Estimated
Thu 03:25:00 AM 18.6605 -51.6855 51° Northeast  Level Estimated
Thu 03:26:00 AM 18.7413 -51.5787 51° Northeast  Level Estimated
Thu 03:27:00 AM 18.8221 -51.4719 51° Northeast  Level Estimated
Thu 03:28:00 AM 18.9028 -51.3649 51° Northeast  Level Estimated
Thu 03:29:00 AM 18.9835 -51.2578 51° Northeast  Level Estimated
Thu 03:30:00 AM 19.0641 -51.1506 51° Northeast  Level Estimated
Thu 03:31:00 AM 19.1446 -51.0433 52° Northeast  Level Estimated
Thu 03:31:21 AM 18.0000 -50.0000 56° Northeast 492 566 39,000  Level New York Oceanic (ODAPS)
Thu 03:32:00 AM 19.2251 -50.9358 52° Northeast  Level Estimated
Thu 03:33:00 AM 19.3055 -50.8283 52° Northeast  Level Estimated
Thu 03:34:00 AM 19.3858 -50.7207 52° Northeast  Level Estimated
Thu 03:35:00 AM 19.4661 -50.6130 52° Northeast  Level Estimated
Thu 03:36:00 AM 19.5463 -50.5052 52° Northeast  Level Estimated
Thu 03:37:00 AM 18.6173 -49.0468 56° Northeast 492 566 39,000  Level FlightAware Transoceanic
Thu 03:38:00 AM 18.6941 -48.9272 56° Northeast 492 566 39,000  Level FlightAware Transoceanic
Thu 03:39:00 AM 18.7709 -48.8074 56° Northeast 492 566 39,000  Level FlightAware Transoceanic
Thu 03:40:00 AM 18.8475 -48.6876 56° Northeast 492 566 39,000  Level FlightAware Transoceanic
Thu 03:41:00 AM 18.9241 -48.5676 56° Northeast 492 566 39,000  Level FlightAware Transoceanic
Thu 03:42:00 AM 19.0007 -48.4476 56° Northeast 492 566 39,000  Level FlightAware Transoceanic
Thu 03:43:00 AM 19.0771 -48.3274 56° Northeast 492 566 39,000  Level FlightAware Transoceanic
Thu 03:44:00 AM 19.1535 -48.2071 56° Northeast 492 566 39,000  Level FlightAware Transoceanic
Thu 03:45:00 AM 19.2298 -48.0867 56° Northeast 492 566 39,000  Level FlightAware Transoceanic
Thu 03:46:00 AM 19.3060 -47.9662 56° Northeast 492 566 39,000  Level FlightAware Transoceanic
Thu 03:47:00 AM 19.3821 -47.8456 56° Northeast 492 566 39,000  Level FlightAware Transoceanic
Thu 03:48:00 AM 19.4581 -47.7248 56° Northeast 492 566 39,000  Level FlightAware Transoceanic
Thu 03:49:00 AM 19.5341 -47.6040 56° Northeast 492 566 39,000  Level FlightAware Transoceanic
Thu 03:50:00 AM 19.6100 -47.4830 56° Northeast 492 566 39,000  Level FlightAware Transoceanic
Thu 03:51:00 AM 19.6858 -47.3619 56° Northeast 492 566 39,000  Level FlightAware Transoceanic
Thu 03:52:00 AM 19.7615 -47.2407 56° Northeast 492 566 39,000  Level FlightAware Transoceanic
Thu 03:53:00 AM 19.8372 -47.1194 56° Northeast 492 566 39,000  Level FlightAware Transoceanic
Thu 03:54:00 AM 19.9127 -46.9980 57° Northeast 492 566 39,000  Level FlightAware Transoceanic
Thu 03:55:00 AM 19.9882 -46.8765 57° Northeast 492 566 39,000  Level FlightAware Transoceanic
Thu 03:56:00 AM 20.0636 -46.7548 57° Northeast 492 566 39,000  Level FlightAware Transoceanic
Thu 03:57:00 AM 20.1389 -46.6330 57° Northeast 492 566 39,000  Level FlightAware Transoceanic
Thu 03:58:00 AM 20.2142 -46.5112 57° Northeast 492 566 39,000  Level FlightAware Transoceanic
Thu 03:59:00 AM 20.2893 -46.3891 57° Northeast 492 566 39,000  Level FlightAware Transoceanic
Thu 04:00:00 AM 20.3644 -46.2670 57° Northeast 492 566 39,000  Level FlightAware Transoceanic
Thu 04:01:00 AM 20.4394 -46.1448 57° Northeast 492 566 39,000  Level FlightAware Transoceanic
Thu 04:02:00 AM 20.5142 -46.0224 57° Northeast 492 566 39,000  Level FlightAware Transoceanic
Thu 04:03:00 AM 20.5890 -45.8999 57° Northeast 492 566 39,000  Level FlightAware Transoceanic
Thu 04:04:00 AM 20.6638 -45.7773 57° Northeast 492 566 39,000  Level FlightAware Transoceanic
Thu 04:05:00 AM 20.7384 -45.6546 57° Northeast 492 566 39,000  Level FlightAware Transoceanic
Thu 04:06:00 AM 20.8129 -45.5318 57° Northeast 492 566 39,000  Level FlightAware Transoceanic
Thu 04:07:00 AM 20.8874 -45.4088 57° Northeast 492 566 39,000  Level FlightAware Transoceanic
Thu 04:08:00 AM 20.9618 -45.2857 57° Northeast 492 566 39,000  Level FlightAware Transoceanic
Thu 04:09:00 AM 21.0361 -45.1625 57° Northeast 492 566 39,000  Level FlightAware Transoceanic
Thu 04:10:00 AM 21.1102 -45.0392 57° Northeast 492 566 39,000  Level FlightAware Transoceanic
Thu 04:11:00 AM 21.1843 -44.9157 57° Northeast 492 566 39,000  Level FlightAware Transoceanic
Thu 04:12:00 AM 21.2584 -44.7921 57° Northeast 492 566 39,000  Level FlightAware Transoceanic
Thu 04:13:00 AM 21.3323 -44.6684 57° Northeast 492 566 39,000  Level FlightAware Transoceanic
Thu 04:14:00 AM 21.4061 -44.5446 57° Northeast 492 566 39,000  Level FlightAware Transoceanic
Thu 04:15:00 AM 21.4799 -44.4206 57° Northeast 492 566 39,000  Level FlightAware Transoceanic
Thu 04:16:00 AM 21.5535 -44.2966 57° Northeast 492 566 39,000  Level FlightAware Transoceanic
Thu 04:17:00 AM 21.6271 -44.1723 58° Northeast 492 566 39,000  Level FlightAware Transoceanic
Thu 04:18:00 AM 21.7005 -44.0480 58° Northeast 492 566 39,000  Level FlightAware Transoceanic
Thu 04:19:00 AM 21.7739 -43.9235 58° Northeast 492 566 39,000  Level FlightAware Transoceanic
Thu 04:20:00 AM 21.8472 -43.7990 58° Northeast 492 566 39,000  Level FlightAware Transoceanic
Thu 04:21:00 AM 21.9204 -43.6743 58° Northeast 492 566 39,000  Level FlightAware Transoceanic
Thu 04:22:00 AM 21.9935 -43.5494 58° Northeast 492 566 39,000  Level FlightAware Transoceanic
Thu 04:23:00 AM 22.0665 -43.4244 58° Northeast 492 566 39,000  Level FlightAware Transoceanic
Thu 04:24:00 AM 22.1394 -43.2993 58° Northeast 492 566 39,000  Level FlightAware Transoceanic
Thu 04:25:00 AM 22.2122 -43.1741 58° Northeast 492 566 39,000  Level FlightAware Transoceanic
Thu 04:26:00 AM 22.2849 -43.0487 58° Northeast 492 566 39,000  Level FlightAware Transoceanic
Thu 04:27:00 AM 22.3575 -42.9232 58° Northeast 492 566 39,000  Level FlightAware Transoceanic
Thu 04:28:00 AM 22.4300 -42.7976 58° Northeast 492 566 39,000  Level FlightAware Transoceanic
Thu 04:29:00 AM 22.5024 -42.6719 58° Northeast 492 566 39,000  Level FlightAware Transoceanic
Thu 04:30:00 AM 22.5748 -42.5460 58° Northeast 492 566 39,000  Level FlightAware Transoceanic
Thu 04:31:00 AM 22.6470 -42.4200 58° Northeast 492 566 39,000  Level FlightAware Transoceanic
Thu 04:32:00 AM 22.7191 -42.2938 58° Northeast 492 566 39,000  Level FlightAware Transoceanic
Thu 04:33:00 AM 22.7911 -42.1675 58° Northeast 492 566 39,000  Level FlightAware Transoceanic
Thu 04:34:00 AM 22.8631 -42.0411 58° Northeast 492 566 39,000  Level FlightAware Transoceanic
Thu 04:35:00 AM 22.9349 -41.9146 58° Northeast 492 566 39,000  Level FlightAware Transoceanic
Thu 04:36:00 AM 23.0066 -41.7879 58° Northeast 492 566 39,000  Level FlightAware Transoceanic
Thu 04:37:00 AM 23.0782 -41.6611 58° Northeast 492 566 39,000  Level FlightAware Transoceanic
Thu 04:38:00 AM 23.1498 -41.5341 59° Northeast 492 566 39,000  Level FlightAware Transoceanic
Thu 04:39:00 AM 23.2212 -41.4070 59° Northeast 492 566 39,000  Level FlightAware Transoceanic
Thu 04:40:00 AM 23.2925 -41.2798 59° Northeast 492 566 39,000  Level FlightAware Transoceanic
Thu 04:41:00 AM 23.3637 -41.1525 59° Northeast 492 566 39,000  Level FlightAware Transoceanic
Thu 04:42:00 AM 23.4349 -41.0249 59° Northeast 492 566 39,000  Level FlightAware Transoceanic
Thu 04:43:00 AM 23.5059 -40.8973 59° Northeast 492 566 39,000  Level FlightAware Transoceanic
Thu 04:44:00 AM 23.5768 -40.7696 59° Northeast 492 566 39,000  Level FlightAware Transoceanic
Thu 04:45:00 AM 23.6476 -40.6416 59° Northeast 492 566 39,000  Level FlightAware Transoceanic
Thu 04:46:00 AM 23.7183 -40.5136 59° Northeast 492 566 39,000  Level FlightAware Transoceanic
Thu 04:47:00 AM 23.7889 -40.3854 59° Northeast 492 566 39,000  Level FlightAware Transoceanic
Thu 04:48:00 AM 23.8594 -40.2571 59° Northeast 492 566 39,000  Level FlightAware Transoceanic
Thu 04:49:00 AM 23.9297 -40.1286 59° Northeast 492 566 39,000  Level FlightAware Transoceanic
Thu 04:50:00 AM 24.0000 -40.0000 54° Northeast 492 566 39,000  Level FlightAware Transoceanic
Thu 04:51:00 AM 24.0811 -39.8783 54° Northeast 492 566 39,000  Level FlightAware Transoceanic
Thu 04:52:00 AM 24.1622 -39.7564 54° Northeast 492 566 39,000  Level FlightAware Transoceanic
Thu 04:53:00 AM 24.2431 -39.6344 54° Northeast 492 566 39,000  Level FlightAware Transoceanic
Thu 04:54:00 AM 24.3240 -39.5122 54° Northeast 492 566 39,000  Level FlightAware Transoceanic
Thu 04:55:00 AM 24.4047 -39.3899 54° Northeast 492 566 39,000  Level FlightAware Transoceanic
Thu 04:56:00 AM 24.4854 -39.2674 54° Northeast 492 566 39,000  Level FlightAware Transoceanic
Thu 04:57:00 AM 24.5659 -39.1448 54° Northeast 492 566 39,000  Level FlightAware Transoceanic
Thu 04:58:00 AM 24.6464 -39.0220 54° Northeast 492 566 39,000  Level FlightAware Transoceanic
Thu 04:59:00 AM 24.7267 -38.8990 54° Northeast 492 566 39,000  Level FlightAware Transoceanic
Thu 05:00:00 AM 24.8070 -38.7759 54° Northeast 492 566 39,000  Level FlightAware Transoceanic
Thu 05:01:00 AM 24.8871 -38.6526 54° Northeast 492 566 39,000  Level FlightAware Transoceanic
Thu 05:02:00 AM 24.9672 -38.5292 54° Northeast 492 566 39,000  Level FlightAware Transoceanic
Thu 05:03:00 AM 25.0471 -38.4056 55° Northeast 492 566 39,000  Level FlightAware Transoceanic
Thu 05:04:00 AM 25.1270 -38.2819 55° Northeast 492 566 39,000  Level FlightAware Transoceanic
Thu 05:05:00 AM 25.2067 -38.1579 55° Northeast 492 566 39,000  Level FlightAware Transoceanic
Thu 05:06:00 AM 25.2864 -38.0339 55° Northeast 492 566 39,000  Level FlightAware Transoceanic
Thu 05:07:00 AM 25.3659 -37.9096 55° Northeast 492 566 39,000  Level FlightAware Transoceanic
Thu 05:08:00 AM 25.4454 -37.7852 55° Northeast 492 566 39,000  Level FlightAware Transoceanic
Thu 05:09:00 AM 25.5247 -37.6606 55° Northeast 492 566 39,000  Level FlightAware Transoceanic
Thu 05:10:00 AM 25.6039 -37.5359 55° Northeast 492 566 39,000  Level FlightAware Transoceanic
Thu 05:11:00 AM 25.6830 -37.4110 55° Northeast 492 566 39,000  Level FlightAware Transoceanic
Thu 05:12:00 AM 25.7620 -37.2859 55° Northeast 492 566 39,000  Level FlightAware Transoceanic
Thu 05:13:00 AM 25.8409 -37.1607 55° Northeast 492 566 39,000  Level FlightAware Transoceanic
Thu 05:14:00 AM 25.9197 -37.0353 55° Northeast 492 566 39,000  Level FlightAware Transoceanic
Thu 05:15:00 AM 25.9984 -36.9097 55° Northeast 492 566 39,000  Level FlightAware Transoceanic
Thu 05:16:00 AM 26.0770 -36.7840 55° Northeast 492 566 39,000  Level FlightAware Transoceanic
Thu 05:17:00 AM 26.1555 -36.6581 55° Northeast 492 566 39,000  Level FlightAware Transoceanic
Thu 05:18:00 AM 26.2338 -36.5320 55° Northeast 492 566 39,000  Level FlightAware Transoceanic
Thu 05:19:00 AM 26.3121 -36.4058 55° Northeast 492 566 39,000  Level FlightAware Transoceanic
Thu 05:20:00 AM 26.3902 -36.2794 55° Northeast 492 566 39,000  Level FlightAware Transoceanic
Thu 05:21:00 AM 26.4682 -36.1528 55° Northeast 492 566 39,000  Level FlightAware Transoceanic
Thu 05:22:00 AM 26.5462 -36.0260 56° Northeast 492 566 39,000  Level FlightAware Transoceanic
Thu 05:23:00 AM 26.6240 -35.8991 56° Northeast 492 566 39,000  Level FlightAware Transoceanic
Thu 05:24:00 AM 26.7017 -35.7720 56° Northeast 492 566 39,000  Level FlightAware Transoceanic
Thu 05:25:00 AM 26.7792 -35.6447 56° Northeast 492 566 39,000  Level FlightAware Transoceanic
Thu 05:26:00 AM 26.8567 -35.5173 56° Northeast 492 566 39,000  Level FlightAware Transoceanic
Thu 05:27:00 AM 26.9340 -35.3896 56° Northeast 492 566 39,000  Level FlightAware Transoceanic
Thu 05:28:00 AM 27.0113 -35.2618 56° Northeast 492 566 39,000  Level FlightAware Transoceanic
Thu 05:29:00 AM 27.0884 -35.1339 56° Northeast 492 566 39,000  Level FlightAware Transoceanic
Thu 05:30:00 AM 27.1654 -35.0057 56° Northeast 492 566 39,000  Level FlightAware Transoceanic
Thu 05:31:00 AM 27.2423 -34.8774 56° Northeast 492 566 39,000  Level FlightAware Transoceanic
Thu 05:32:00 AM 27.3191 -34.7489 56° Northeast 492 566 39,000  Level FlightAware Transoceanic
Thu 05:33:00 AM 27.3957 -34.6202 56° Northeast 492 566 39,000  Level FlightAware Transoceanic
Thu 05:34:00 AM 27.4722 -34.4913 56° Northeast 492 566 39,000  Level FlightAware Transoceanic
Thu 05:35:00 AM 27.5487 -34.3623 56° Northeast 492 566 39,000  Level FlightAware Transoceanic
Thu 05:36:00 AM 27.6250 -34.2331 56° Northeast 492 566 39,000  Level FlightAware Transoceanic
Thu 05:37:00 AM 27.7011 -34.1037 56° Northeast 492 566 39,000  Level FlightAware Transoceanic
Thu 05:38:00 AM 27.7772 -33.9741 56° Northeast 492 566 39,000  Level FlightAware Transoceanic
Thu 05:39:00 AM 27.8531 -33.8443 57° Northeast 492 566 39,000  Level FlightAware Transoceanic
Thu 05:40:00 AM 27.9289 -33.7144 57° Northeast 492 566 39,000  Level FlightAware Transoceanic
Thu 05:41:00 AM 28.0046 -33.5843 57° Northeast 492 566 39,000  Level FlightAware Transoceanic
Thu 05:42:00 AM 28.0802 -33.4539 57° Northeast 492 566 39,000  Level FlightAware Transoceanic
Thu 05:43:00 AM 28.1556 -33.3234 57° Northeast 492 566 39,000  Level FlightAware Transoceanic
Thu 05:44:00 AM 28.2309 -33.1928 57° Northeast 492 566 39,000  Level FlightAware Transoceanic
Thu 05:45:00 AM 28.3062 -33.0619 57° Northeast 492 566 39,000  Level FlightAware Transoceanic
Thu 05:46:00 AM 28.3812 -32.9309 57° Northeast 492 566 39,000  Level FlightAware Transoceanic
Thu 05:47:00 AM 28.4562 -32.7996 57° Northeast 492 566 39,000  Level FlightAware Transoceanic
Thu 05:48:00 AM 28.5310 -32.6682 57° Northeast 492 566 39,000  Level FlightAware Transoceanic
Thu 05:49:00 AM 28.6057 -32.5366 57° Northeast 492 566 39,000  Level FlightAware Transoceanic
Thu 05:50:00 AM 28.6802 -32.4048 57° Northeast 492 566 39,000  Level FlightAware Transoceanic
Thu 05:51:00 AM 28.7547 -32.2728 57° Northeast 492 566 39,000  Level FlightAware Transoceanic
Thu 05:52:00 AM 28.8290 -32.1407 57° Northeast 492 566 39,000  Level FlightAware Transoceanic
Thu 05:53:00 AM 28.9032 -32.0083 57° Northeast 492 566 39,000  Level FlightAware Transoceanic
Thu 05:54:00 AM 28.9772 -31.8758 57° Northeast 492 566 39,000  Level FlightAware Transoceanic
Thu 05:55:00 AM 29.0511 -31.7430 58° Northeast 492 566 39,000  Level FlightAware Transoceanic
Thu 05:56:00 AM 29.1249 -31.6101 58° Northeast 492 566 39,000  Level FlightAware Transoceanic
Thu 05:57:00 AM 29.1986 -31.4770 58° Northeast 492 566 39,000  Level FlightAware Transoceanic
Thu 05:58:00 AM 29.2721 -31.3437 58° Northeast 492 566 39,000  Level FlightAware Transoceanic
Thu 05:59:00 AM 29.3455 -31.2102 58° Northeast 492 566 39,000  Level FlightAware Transoceanic
Thu 06:00:00 AM 29.4188 -31.0765 58° Northeast 492 566 39,000  Level FlightAware Transoceanic
Thu 06:01:00 AM 29.4919 -30.9426 58° Northeast 492 566 39,000  Level FlightAware Transoceanic
Thu 06:02:00 AM 29.5649 -30.8085 58° Northeast 492 566 39,000  Level FlightAware Transoceanic
Thu 06:03:00 AM 29.6378 -30.6743 58° Northeast 492 566 39,000  Level FlightAware Transoceanic
Thu 06:04:00 AM 29.7105 -30.5398 58° Northeast 492 566 39,000  Level FlightAware Transoceanic
Thu 06:05:00 AM 29.7831 -30.4051 58° Northeast 492 566 39,000  Level FlightAware Transoceanic
Thu 06:06:00 AM 29.8555 -30.2703 58° Northeast 492 566 39,000  Level FlightAware Transoceanic
Thu 06:07:00 AM 29.9278 -30.1353 58° Northeast 492 566 39,000 52 Level FlightAware Transoceanic
Thu 06:08:00 AM 29.9957 -30.0080 58° Northeast  Level FlightAware Approximate
Thu 06:09:00 AM 30.0635 -29.8806 58° Northeast  Level FlightAware Approximate
Thu 06:10:00 AM 30.0616 -29.8903 57° Northeast  Level FlightAware Approximate
Thu 06:11:00 AM 30.1320 -29.7647 57° Northeast  Level FlightAware Approximate
Thu 06:12:00 AM 30.2022 -29.6388 57° Northeast  Level FlightAware Approximate
Thu 06:13:00 AM 30.2724 -29.5129 57° Northeast  Level FlightAware Approximate
Thu 06:14:00 AM 30.3424 -29.3867 57° Northeast  Level FlightAware Approximate
Thu 06:15:00 AM 30.4123 -29.2603 57° Northeast  Level FlightAware Approximate
Thu 06:16:00 AM 30.4820 -29.1338 57° Northeast  Level FlightAware Approximate
Thu 06:17:00 AM 30.5517 -29.0071 57° Northeast  Level FlightAware Approximate
Thu 06:18:00 AM 30.6212 -28.8802 57° Northeast  Level FlightAware Approximate
Thu 06:19:00 AM 30.6906 -28.7531 58° Northeast  Level FlightAware Approximate
Thu 06:20:00 AM 30.7599 -28.6259 58° Northeast  Level FlightAware Approximate
Thu 06:21:00 AM 30.8290 -28.4984 58° Northeast  Level FlightAware Approximate
Thu 06:22:00 AM 30.8981 -28.3708 58° Northeast  Level FlightAware Approximate
Thu 06:23:00 AM 30.9670 -28.2430 58° Northeast  Level FlightAware Approximate
Thu 06:24:00 AM 31.0357 -28.1150 58° Northeast  Level FlightAware Approximate
Thu 06:25:00 AM 31.1044 -27.9868 58° Northeast  Level FlightAware Approximate
Thu 06:26:00 AM 31.1729 -27.8584 58° Northeast  Level FlightAware Approximate
Thu 06:27:00 AM 31.2413 -27.7299 58° Northeast  Level FlightAware Approximate
Thu 06:28:00 AM 31.3096 -27.6012 58° Northeast  Level FlightAware Approximate
Thu 06:29:00 AM 31.3777 -27.4722 58° Northeast  Level FlightAware Approximate
Thu 06:30:00 AM 31.4459 -27.3432 58° Northeast  Level FlightAware Approximate
Thu 06:31:00 AM 31.5145 -27.2145 58° Northeast  Level FlightAware Approximate
Thu 06:32:00 AM 31.5829 -27.0855 58° Northeast  Level FlightAware Approximate
Thu 06:33:00 AM 31.6513 -26.9563 58° Northeast  Level FlightAware Approximate
Thu 06:34:00 AM 31.7195 -26.8270 58° Northeast  Level FlightAware Approximate
Thu 06:35:00 AM 31.7876 -26.6975 58° Northeast  Level FlightAware Approximate
Thu 06:36:00 AM 31.8556 -26.5678 58° Northeast  Level FlightAware Approximate
Thu 06:37:00 AM 31.9234 -26.4378 58° Northeast  Level FlightAware Approximate
Thu 06:38:00 AM 31.9911 -26.3077 58° Northeast  Level FlightAware Approximate
Thu 06:39:00 AM 32.0586 -26.1775 59° Northeast  Level FlightAware Approximate
Thu 06:40:00 AM 32.1261 -26.0470 59° Northeast  Level FlightAware Approximate
Thu 06:41:00 AM 32.1934 -25.9163 59° Northeast  Level FlightAware Approximate
Thu 06:42:00 AM 32.2605 -25.7854 59° Northeast  Level FlightAware Approximate
Thu 06:43:00 AM 32.3275 -25.6544 59° Northeast  Level FlightAware Approximate
Thu 06:44:00 AM 32.3944 -25.5231 59° Northeast  Level FlightAware Approximate
Thu 06:44:40 AM 32.7620 -24.8140 59° Northeast 507 583 41,000  Level FlightAware ADS-B
Thu 06:45:00 AM 32.4612 -25.3916 59° Northeast  Level FlightAware Approximate
Thu 06:45:37 AM 32.8360 -24.6660 59° Northeast 506 582 41,000  Level FlightAware ADS-B
Thu 06:46:47 AM 32.9260 -24.4820 60° Northeast 506 582 41,000  Level FlightAware ADS-B
Thu 06:47:46 AM 32.9890 -24.3550 59° Northeast 506 582 41,000  Level FlightAware ADS-B
Thu 06:48:19 AM 33.0350 -24.2610 60° Northeast 506 582 41,000  Level FlightAware ADS-B
Thu 06:49:13 AM 33.1000 -24.1270 60° Northeast 506 582 41,000  Level FlightAware ADS-B
Thu 06:49:50 AM 33.1380 -24.0510 59° Northeast 506 582 41,000  Level FlightAware ADS-B
Thu 06:50:38 AM 33.1870 -23.9540 59° Northeast 506 582 41,000  Level FlightAware ADS-B
Thu 06:51:14 AM 33.2240 -23.8800 59° Northeast 506 582 41,000  Level FlightAware ADS-B
Thu 06:52:02 AM 33.2730 -23.7820 59° Northeast 506 582 41,000  Level FlightAware ADS-B
Thu 06:52:38 AM 33.3100 -23.7090 59° Northeast 506 582 41,000  Level FlightAware ADS-B
Thu 06:53:46 AM 33.4280 -23.4470 62° Northeast 508 585 41,000  Level FlightAware ADS-B
Thu 06:54:30 AM 33.4720 -23.3560 60° Northeast 508 585 41,000  Level FlightAware ADS-B
Thu 06:55:56 AM 33.5650 -23.1620 60° Northeast 508 585 41,000  Level FlightAware ADS-B
Thu 06:56:29 AM 33.6020 -23.0820 61° Northeast 508 585 41,000  Level FlightAware ADS-B
Thu 06:57:15 AM 33.6400 -23.0040 60° Northeast 506 582 41,000  Level FlightAware ADS-B
Thu 06:58:03 AM 33.6880 -22.9040 60° Northeast 506 582 41,000  Level FlightAware ADS-B
Thu 06:58:39 AM 33.7230 -22.8300 60° Northeast 506 582 41,000  Level FlightAware ADS-B
Thu 06:59:27 AM 33.7710 -22.7300 60° Northeast 506 582 41,000  Level FlightAware ADS-B
Thu 07:00:57 AM 33.8610 -22.5430 60° Northeast 506 582 41,000  Level FlightAware ADS-B
Thu 07:01:34 AM 33.8970 -22.4670 60° Northeast 506 582 41,000  Level FlightAware ADS-B
Thu 07:02:10 AM 33.9330 -22.3920 60° Northeast 506 582 41,000  Level FlightAware ADS-B
Thu 07:02:58 AM 33.9810 -22.2920 60° Northeast 506 582 41,000  Level FlightAware ADS-B
Thu 07:03:35 AM 34.0180 -22.2150 60° Northeast 506 582 41,000  Level FlightAware ADS-B
Thu 07:04:23 AM 34.0660 -22.1150 60° Northeast 506 582 41,000  Level FlightAware ADS-B
Thu 07:04:59 AM 34.1010 -22.0410 60° Northeast 506 582 41,000  Level FlightAware ADS-B
Thu 07:06:01 AM 34.1630 -21.9110 60° Northeast 506 582 41,000  Level FlightAware ADS-B
Thu 07:06:37 AM 34.1990 -21.8360 60° Northeast 506 582 41,000 -9 Level FlightAware ADS-B
Thu 07:09:00 AM 34.3456 -21.5073 62° Northeast  Level FlightAware Approximate
Thu 07:10:00 AM 34.4068 -21.3691 62° Northeast  Level FlightAware Approximate
Thu 07:11:00 AM 34.4678 -21.2307 62° Northeast  Level FlightAware Approximate
Thu 07:12:00 AM 34.5288 -21.0920 62° Northeast  Level FlightAware Approximate
Thu 07:13:00 AM 34.5895 -20.9532 62° Northeast  Level FlightAware Approximate
Thu 07:14:00 AM 34.6501 -20.8141 62° Northeast  Level FlightAware Approximate
Thu 07:15:00 AM 34.7106 -20.6749 62° Northeast  Level FlightAware Approximate
Thu 07:16:00 AM 34.7708 -20.5354 62° Northeast  Level FlightAware Approximate
Thu 07:17:00 AM 34.8310 -20.3958 62° Northeast  Level FlightAware Approximate
Thu 07:18:00 AM 34.8909 -20.2559 62° Northeast  Level FlightAware Approximate
Thu 07:19:00 AM 34.9507 -20.1158 62° Northeast  Level FlightAware Approximate
Thu 07:20:00 AM 35.0101 -19.9752 63° Northeast  Level FlightAware Approximate
Thu 07:21:00 AM 35.0679 -19.8337 63° Northeast  Level FlightAware Approximate
Thu 07:22:00 AM 35.1255 -19.6919 64° Northeast  Level FlightAware Approximate
Thu 07:23:00 AM 35.1829 -19.5500 64° Northeast  Level FlightAware Approximate
Thu 07:24:00 AM 35.2402 -19.4079 64° Northeast  Level FlightAware Approximate
Thu 07:25:00 AM 35.2973 -19.2655 64° Northeast  Level FlightAware Approximate
Thu 07:26:00 AM 35.3543 -19.1230 64° Northeast  Level FlightAware Approximate
Thu 07:27:00 AM 35.4120 -18.9809 63° Northeast  Level FlightAware Approximate
Thu 07:28:00 AM 35.4706 -18.8391 63° Northeast  Level FlightAware Approximate
Thu 07:29:00 AM 35.5291 -18.6972 63° Northeast  Level FlightAware Approximate
Thu 07:30:00 AM 35.5873 -18.5551 63° Northeast  Level FlightAware Approximate
Thu 07:31:00 AM 35.6455 -18.4127 63° Northeast  Level FlightAware Approximate
Thu 07:32:00 AM 35.7034 -18.2702 63° Northeast  Level FlightAware Approximate
Thu 07:33:00 AM 35.7612 -18.1274 63° Northeast  Level FlightAware Approximate
Thu 07:34:00 AM 35.8188 -17.9845 64° Northeast  Level FlightAware Approximate
Thu 07:35:00 AM 35.8762 -17.8413 64° Northeast  Level FlightAware Approximate
Thu 07:36:00 AM 35.9335 -17.6979 64° Northeast  Level FlightAware Approximate
Thu 07:37:00 AM 35.9906 -17.5543 64° Northeast  Level FlightAware Approximate
Thu 07:38:00 AM 36.0475 -17.4106 64° Northeast  Level FlightAware Approximate
Thu 07:39:00 AM 36.1043 -17.2666 64° Northeast  Level FlightAware Approximate
Thu 07:40:00 AM 36.1607 -17.1223 64° Northeast  Level FlightAware Approximate
Thu 07:41:00 AM 36.2167 -16.9776 64° Northeast  Level FlightAware Approximate
Thu 07:42:00 AM 36.2725 -16.8327 64° Northeast  Level FlightAware Approximate
Thu 07:43:00 AM 36.3281 -16.6876 65° Northeast  Level FlightAware Approximate
Thu 07:44:00 AM 36.3835 -16.5423 65° Northeast  Level FlightAware Approximate
Thu 07:45:00 AM 36.4388 -16.3968 65° Northeast  Level FlightAware Approximate
Thu 07:46:00 AM 36.4938 -16.2511 65° Northeast  Level FlightAware Approximate
Thu 07:47:00 AM 36.5487 -16.1051 65° Northeast  Level FlightAware Approximate
Thu 07:48:00 AM 36.6034 -15.9590 65° Northeast  Level FlightAware Approximate
Thu 07:49:00 AM 36.6580 -15.8127 65° Northeast  Level FlightAware Approximate
Thu 07:50:00 AM 36.7123 -15.6661 65° Northeast  Level FlightAware Approximate
Thu 07:51:00 AM 36.7665 -15.5194 65° Northeast  Level FlightAware Approximate
Thu 07:52:00 AM 36.8205 -15.3724 65° Northeast  Level FlightAware Approximate
Thu 07:53:00 AM 36.8743 -15.2252 65° Northeast  Level FlightAware Approximate
Thu 07:54:00 AM 36.9280 -15.0778 65° Northeast  Level FlightAware Approximate
Thu 07:55:00 AM 36.9814 -14.9303 66° East  Level FlightAware Approximate
Thu 07:56:00 AM 37.0347 -14.7825 66° East  Level FlightAware Approximate
Thu 07:57:00 AM 37.0878 -14.6345 66° East  Level FlightAware Approximate
Thu 07:58:00 AM 37.1407 -14.4862 66° East  Level FlightAware Approximate
Thu 07:59:00 AM 37.1934 -14.3378 66° East  Level FlightAware Approximate
Thu 08:00:00 AM 37.2459 -14.1892 66° East  Level FlightAware Approximate
Thu 08:01:00 AM 37.2983 -14.0404 66° East  Level FlightAware Approximate
Thu 08:02:00 AM 37.3504 -13.8913 66° East  Level FlightAware Approximate
Thu 08:03:00 AM 37.4024 -13.7421 66° East  Level FlightAware Approximate
Thu 08:04:00 AM 37.4542 -13.5927 66° East  Level FlightAware Approximate
Thu 08:05:00 AM 37.5058 -13.4430 66° East  Level FlightAware Approximate
Thu 08:06:00 AM 37.5572 -13.2931 67° East  Level FlightAware Approximate
Thu 08:07:00 AM 37.6085 -13.1431 67° East  Level FlightAware Approximate
Thu 08:08:00 AM 37.6597 -12.9930 67° East  Level FlightAware Approximate
Thu 08:09:00 AM 37.7108 -12.8426 67° East  Level FlightAware Approximate
Thu 08:10:00 AM 37.7616 -12.6920 67° East  Level FlightAware Approximate
Thu 08:10:59 AM 38.1710 -11.6750 67° East 505 581 40,400  Level FlightAware ADS-B
Thu 08:11:00 AM 37.8123 -12.5412 67° East  Level FlightAware Approximate
Thu 08:11:46 AM 38.2090 -11.5660 66° East 505 581 40,400  Level FlightAware ADS-B
Thu 08:12:51 AM 38.2630 -11.4020 67° East 500 575 40,100 -222 Descending FlightAware ADS-B
Thu 08:13:34 AM 38.3090 -11.2650 67° East 495 570 40,000 -72 Descending FlightAware ADS-B
Thu 08:14:14 AM 38.3490 -11.1460 67° East 498 573 40,000  Level FlightAware ADS-B
Thu 08:14:54 AM 38.3850 -11.0370 67° East 497 572 40,000  Level FlightAware ADS-B
Thu 08:16:08 AM 38.4450 -10.8550 67° East 495 570 40,000  Level FlightAware ADS-B
Thu 08:16:49 AM 38.4860 -10.7310 67° East 494 568 40,000  Level FlightAware ADS-B
Thu 08:17:44 AM 38.5340 -10.5850 67° East 493 567 40,000  Level FlightAware ADS-B
Thu 08:18:24 AM 38.5690 -10.4780 67° East 492 566 40,000  Level FlightAware ADS-B
Thu 08:19:09 AM 38.6090 -10.3530 68° East 493 567 40,000  Level FlightAware ADS-B
Thu 08:19:49 AM 38.6430 -10.2480 67° East 494 568 40,000  Level FlightAware ADS-B
Thu 08:20:34 AM 38.6810 -10.1320 67° East 494 568 40,000  Level FlightAware ADS-B
Thu 08:20:59 AM 38.7050 -10.0560 68° East 494 568 40,000  Level FlightAware ADS-B
Thu 08:21:44 AM 38.7440 -9.9350 68° East 495 570 40,000  Level FlightAware ADS-B
Thu 08:22:29 AM 38.7820 -9.8140 68° East 494 568 40,000  Level FlightAware ADS-B
Thu 08:23:09 AM 38.8170 -9.7060 67° East 493 567 40,000  Level FlightAware ADS-B
Thu 08:23:49 AM 38.8510 -9.5960 68° East 494 568 40,000  Level FlightAware ADS-B
Thu 08:24:30 AM 38.8830 -9.4930 68° East 497 572 40,000  Level FlightAware ADS-B
Thu 08:25:14 AM 38.9230 -9.3660 68° East 498 573 40,000  Level FlightAware ADS-B
Thu 08:25:54 AM 38.9560 -9.2620 68° East 499 574 40,000  Level FlightAware ADS-B
Thu 08:26:39 AM 38.9940 -9.1380 68° East 500 575 40,000  Level FlightAware ADS-B
Thu 08:27:19 AM 39.0300 -9.0220 68° East 500 575 40,000  Level FlightAware ADS-B
Thu 08:28:04 AM 39.0680 -8.8990 68° East 497 572 40,000  Level FlightAware ADS-B
Thu 08:28:44 AM 39.1030 -8.7870 68° East 495 570 40,000  Level FlightAware ADS-B
Thu 08:29:30 AM 39.1400 -8.6650 69° East 491 565 40,000  Level FlightAware ADS-B
Thu 08:29:54 AM 39.1600 -8.5970 69° East 491 565 40,000  Level FlightAware ADS-B
Thu 08:31:07 AM 39.2100 -8.4330 68° East 491 565 40,000  Level FlightAware ADS-B
Thu 08:31:49 AM 39.2560 -8.2830 68° East 491 565 40,000  Level FlightAware ADS-B
Thu 08:32:24 AM 39.2830 -8.1900 69° East 491 565 40,000  Level FlightAware ADS-B
Thu 08:33:34 AM 39.3410 -7.9970 69° East 492 566 40,000  Level FlightAware ADS-B
Thu 08:34:14 AM 39.3730 -7.8880 69° East 492 566 40,000 -212 Level FlightAware ADS-B
Thu 08:34:59 AM 39.4100 -7.7630 69° East 494 568 39,700 -560 Descending FlightAware ADS-B
Thu 08:35:29 AM 39.4340 -7.6830 69° East 496 571 39,300 -880 Descending FlightAware ADS-B
Thu 08:36:14 AM 39.4700 -7.5590 69° East 496 571 38,600 -1,133 Descending FlightAware ADS-B
Thu 08:36:59 AM 39.5070 -7.4310 69° East 500 575 37,600 -1,482 Descending FlightAware ADS-B
Thu 08:37:39 AM 39.5540 -7.3280 59° Northeast 491 565 36,500 -1,425 Descending FlightAware ADS-B
Thu 08:38:19 AM 39.6130 -7.2410 49° Northeast 493 567 35,700 -1,129 Descending FlightAware ADS-B
Thu 08:39:04 AM 39.6750 -7.1420 51° Northeast 496 571 34,900 -1,129 Descending FlightAware ADS-B
Thu 08:39:44 AM 39.7310 -7.0400 54° Northeast 501 577 34,100 -783 Descending FlightAware ADS-B
Thu 08:40:13 AM 39.7520 -6.9570 72° East 503 579 34,000 -81 Descending FlightAware ADS-B
Thu 08:40:58 AM 39.7640 -6.8300 83° East 504 580 34,000  Level FlightAware ADS-B
Thu 08:41:37 AM 39.7760 -6.7030 83° East 503 579 34,000  Level FlightAware ADS-B
Thu 08:42:17 AM 39.7870 -6.5840 83° East 504 580 34,000  Level FlightAware ADS-B
Thu 08:42:59 AM 39.7990 -6.4580 83° East 503 579 34,000  Level FlightAware ADS-B
Thu 08:43:45 AM 39.8110 -6.3230 83° East 494 568 34,000  Level FlightAware ADS-B
Thu 08:44:25 AM 39.8210 -6.2050 84° East 481 554 34,000  Level FlightAware ADS-B
Thu 08:47:00 AM 39.8784 -5.7768 69° East  Level FlightAware Approximate
Thu 08:48:00 AM 39.9248 -5.6192 69° East  Level FlightAware Approximate
Thu 08:49:00 AM 39.9684 -5.4602 72° East  Level FlightAware Approximate
Thu 08:50:00 AM 40.0086 -5.2996 72° East  Level FlightAware Approximate
Thu 08:51:00 AM 40.0486 -5.1388 72° East  Level FlightAware Approximate
Thu 08:52:00 AM 40.0902 -4.9785 71° East  Level FlightAware Approximate
Thu 08:53:00 AM 40.1315 -4.8181 71° East  Level FlightAware Approximate
Thu 08:54:00 AM 40.1726 -4.6574 71° East  Level FlightAware Approximate
Thu 08:55:00 AM 40.2161 -4.4978 68° East  Level FlightAware Approximate
Thu 08:56:00 AM 40.2645 -4.3405 68° East  Level FlightAware Approximate
Thu 08:57:00 AM 40.3052 -4.1794 72° East  Level FlightAware Approximate
Thu 08:58:00 AM 40.3455 -4.0180 72° East  Level FlightAware Approximate
Thu 08:59:00 AM 40.3854 -3.8563 75° East  Level FlightAware Approximate
Thu 09:00:00 AM 40.4261 -3.7007 79° East  Level FlightAware Approximate
Thu 09:01:00 AM 40.4667 -3.5500 66° East  Level FlightAware Approximate
Thu 09:02:00 AM 40.4936 -3.5668 66° East  Level Estimated
Thu 09:03:00 AM 40.4936 -3.5668 66° East  Level Estimated
Thu 09:04:00 AM 40.4936 -3.5668 66° East  Level Estimated
Thu 09:05:00 AM 40.4936 -3.5668 66° East  Level Estimated
Thu 09:06:00 AM 40.4936 -3.5668 66° East  Level Estimated
Thu 09:07:00 AM 40.4936 -3.5668 66° East  Level Estimated
Thu 09:08:00 AM 40.4936 -3.5668 66° East  Level Estimated
Thu 09:09:00 AM 40.4936 -3.5668 66° East  Level Estimated
Thu 09:10:00 AM 40.4936 -3.5668 66° East  Level Estimated
Thu 09:11:00 AM 40.4936 -3.5668 66° East  Level Estimated
Thu 09:12:00 AM 40.4936 -3.5668 66° East  Level Estimated
Thu 09:13:00 AM 40.4936 -3.5668 66° East  Level Estimated
Thu 09:14:00 AM 40.4936 -3.5668 66° East  Level Estimated

Login

Don't have an account? Register now (free) for customized features, flight alerts, and more!